createdAt,value
2019-03-24T00:04:55.142Z,98467.08
2019-03-24T00:09:58.483Z,98457.36
2019-03-24T00:15:01.853Z,98458.14
2019-03-24T00:20:10.257Z,98448.94
2019-03-24T00:25:13.493Z,98444.55
2019-03-24T00:30:16.910Z,98435.16
2019-03-24T00:35:20.322Z,98433.25
2019-03-24T00:40:23.655Z,98427.79
2019-03-24T00:45:36.426Z,98424.89
2019-03-24T00:50:32.056Z,98422.36
2019-03-24T00:55:35.395Z,98420.03
2019-03-24T01:00:41.898Z,98417.67
2019-03-24T01:05:45.843Z,98416.08
2019-03-24T01:10:49.181Z,98417.77
2019-03-24T01:15:52.505Z,98419.42
2019-03-24T01:20:55.916Z,98415.56
2019-03-24T01:25:59.271Z,98412.91
2019-03-24T01:31:02.681Z,98409.75
2019-03-24T01:36:06.090Z,98415.34
2019-03-24T01:41:09.423Z,98409.20
2019-03-24T01:46:12.874Z,98401.28
2019-03-24T01:51:16.228Z,98392.59
2019-03-24T01:56:19.554Z,98392.59
2019-03-24T02:01:22.923Z,98396.72
2019-03-24T02:06:26.225Z,98394.23
2019-03-24T02:11:29.564Z,98401.08
2019-03-24T02:16:32.902Z,98392.19
2019-03-24T02:21:36.234Z,98402.84
2019-03-24T02:26:39.740Z,98396.67
2019-03-24T02:31:43.076Z,98400.92
2019-03-24T02:36:46.411Z,98397.58
2019-03-24T02:41:49.750Z,98393.45
2019-03-24T02:46:53.089Z,98388.22
2019-03-24T02:51:56.433Z,98392.89
2019-03-24T02:56:59.785Z,98388.06
2019-03-24T03:02:03.129Z,98385.52
2019-03-24T03:07:06.473Z,98391.68
2019-03-24T03:12:09.806Z,98387.42
2019-03-24T03:17:13.141Z,98378.08
2019-03-24T03:22:16.474Z,98378.91
2019-03-24T03:27:19.968Z,98380.02
2019-03-24T03:32:23.323Z,98381.23
2019-03-24T03:37:26.701Z,98393.59
2019-03-24T03:42:29.973Z,98381.20
2019-03-24T03:47:33.338Z,98386.25
2019-03-24T03:52:36.748Z,98379.45
2019-03-24T03:57:40.137Z,98385.09
2019-03-24T04:02:43.479Z,98382.55
2019-03-24T04:07:46.813Z,98366.23
2019-03-24T04:12:50.230Z,98367.63
2019-03-24T04:17:53.575Z,98353.96
2019-03-24T04:22:57.056Z,98353.96
2019-03-24T04:28:00.533Z,98351.38
2019-03-24T04:33:03.893Z,98357.22
2019-03-24T04:38:07.229Z,98353.82
2019-03-24T04:43:10.570Z,98353.45
2019-03-24T04:48:13.908Z,98357.88
2019-03-24T04:53:17.238Z,98357.95
2019-03-24T04:58:20.582Z,98359.16
2019-03-24T05:03:23.993Z,98369.70
2019-03-24T05:08:27.710Z,98366.16
2019-03-24T05:13:31.048Z,98362.56
2019-03-24T05:18:34.383Z,98363.58
2019-03-24T05:23:37.792Z,98367.57
2019-03-24T05:28:41.210Z,98364.87
2019-03-24T05:33:44.620Z,98359.12
2019-03-24T05:38:48.098Z,98359.55
2019-03-24T05:43:51.430Z,98363.12
2019-03-24T05:48:54.836Z,98358.09
2019-03-24T05:53:58.163Z,98358.09
2019-03-24T05:59:01.514Z,98349.17
2019-03-24T06:04:04.933Z,98344.08
2019-03-24T06:09:08.296Z,98351.47
2019-03-24T06:14:11.629Z,98346.00
2019-03-24T06:19:14.981Z,98345.19
2019-03-24T06:24:18.314Z,98344.42
2019-03-24T06:29:21.651Z,98344.82
2019-03-24T06:34:25.001Z,98335.06
2019-03-24T06:39:28.339Z,98327.59
2019-03-24T06:44:31.671Z,98319.47
2019-03-24T06:49:35.016Z,98315.02
2019-03-24T06:54:38.425Z,98313.45
2019-03-24T06:59:41.803Z,98311.36
2019-03-24T07:04:45.169Z,98320.30
2019-03-24T07:09:48.502Z,98318.64
2019-03-24T07:14:52.798Z,98315.28
2019-03-24T07:19:56.136Z,98309.10
2019-03-24T07:24:59.475Z,98314.03
2019-03-24T07:30:03.991Z,98308.61
2019-03-24T07:35:07.470Z,98311.34
2019-03-24T07:40:10.872Z,98305.73
2019-03-24T07:45:14.385Z,98306.88
2019-03-24T07:50:18.801Z,98306.56
2019-03-24T07:55:22.108Z,98304.94
2019-03-24T08:00:33.168Z,98306.53
2019-03-24T08:05:36.527Z,98319.56
2019-03-24T08:10:39.855Z,98304.92
2019-03-24T08:15:44.165Z,98304.52
2019-03-24T08:20:47.507Z,98301.42
2019-03-24T08:25:50.848Z,98295.48
2019-03-24T08:30:54.180Z,98299.11
2019-03-24T08:35:57.521Z,98290.94
2019-03-24T08:41:00.848Z,98284.06
2019-03-24T08:46:04.190Z,98277.83
2019-03-24T08:51:07.541Z,98270.45
2019-03-24T08:56:10.984Z,98271.19
2019-03-24T09:01:14.335Z,98262.87
2019-03-24T09:06:17.687Z,98260.59
2019-03-24T09:11:30.808Z,98247.72
2019-03-24T09:16:26.219Z,98229.92
2019-03-24T09:21:29.568Z,98216.97
2019-03-24T09:26:32.924Z,98224.53
2019-03-24T09:31:36.350Z,98209.28
2019-03-24T09:36:39.717Z,98200.19
2019-03-24T09:41:43.054Z,98197.66
2019-03-24T09:46:46.390Z,98199.05
2019-03-24T09:51:49.811Z,98192.53
2019-03-24T09:56:53.205Z,98180.17
2019-03-24T10:01:56.633Z,98170.98
2019-03-24T10:06:59.987Z,98163.52
2019-03-24T10:12:03.322Z,98155.62
2019-03-24T10:17:06.672Z,98150.70
2019-03-24T10:22:10.039Z,98138.44
2019-03-24T10:27:13.366Z,98136.41
2019-03-24T10:32:16.694Z,98126.63
2019-03-24T10:37:20.050Z,98123.39
2019-03-24T10:42:23.398Z,98117.72
2019-03-24T10:47:26.750Z,98114.51
2019-03-24T10:52:30.101Z,98117.13
2019-03-24T10:57:33.446Z,98114.75
2019-03-24T11:02:36.878Z,98103.98
2019-03-24T11:07:40.296Z,98092.95
2019-03-24T11:12:43.648Z,98090.81
2019-03-24T11:17:47.003Z,98092.57
2019-03-24T11:22:50.360Z,98083.23
2019-03-24T11:27:53.734Z,98073.17
2019-03-24T11:32:57.177Z,98054.04
2019-03-24T11:38:00.534Z,98054.89
2019-03-24T11:43:03.899Z,98045.46
2019-03-24T11:48:07.253Z,98047.02
2019-03-24T11:53:10.595Z,98037.77
2019-03-24T11:58:13.948Z,98039.93
2019-03-24T12:03:17.303Z,98030.42
2019-03-24T12:08:20.664Z,98006.73
2019-03-24T12:13:24.072Z,98011.73
2019-03-24T12:18:27.415Z,98006.19
2019-03-24T12:23:30.734Z,97996.31
2019-03-24T12:28:34.206Z,97989.61
2019-03-24T12:33:37.581Z,97980.87
2019-03-24T12:38:41.880Z,97980.78
2019-03-24T12:43:45.265Z,97981.23
2019-03-24T12:48:48.609Z,97973.46
2019-03-24T12:53:51.979Z,97974.48
2019-03-24T12:58:55.450Z,97967.06
2019-03-24T13:03:58.870Z,97968.33
2019-03-24T13:09:02.251Z,97961.09
2019-03-24T13:14:05.651Z,97946.69
2019-03-24T13:19:09.004Z,97938.25
2019-03-24T13:24:12.365Z,97929.69
2019-03-24T13:29:15.792Z,97925.63
2019-03-24T13:34:19.198Z,97915.88
2019-03-24T13:39:22.586Z,97906.59
2019-03-24T13:44:25.948Z,97898.37
2019-03-24T13:49:29.295Z,97898.98
2019-03-24T13:54:32.644Z,97895.42
2019-03-24T13:59:36.270Z,97892.20
2019-03-24T14:04:39.631Z,97881.42
2019-03-24T14:09:42.988Z,97876.84
2019-03-24T14:14:46.335Z,97873.83
2019-03-24T14:19:49.668Z,97869.80
2019-03-24T14:24:53.040Z,97857.70
2019-03-24T14:29:56.400Z,97848.61
2019-03-24T14:34:59.756Z,97842.73
2019-03-24T14:40:04.275Z,97835.38
2019-03-24T14:45:08.985Z,97844.85
2019-03-24T14:50:12.502Z,97843.41
2019-03-24T14:55:15.880Z,97847.02
2019-03-24T15:00:36.127Z,97841.48
2019-03-24T15:05:39.497Z,97838.25
2019-03-24T15:10:42.898Z,97838.25
2019-03-24T15:15:46.237Z,97831.89
2019-03-24T15:20:49.584Z,97836.58
2019-03-24T15:25:54.989Z,97833.03
2019-03-24T15:30:58.380Z,97844.84
2019-03-24T15:36:01.742Z,97846.03
2019-03-24T15:41:05.052Z,97852.42
2019-03-24T15:46:08.415Z,97851.91
2019-03-24T15:51:16.924Z,97856.87
2019-03-24T15:56:16.874Z,97863.80
2019-03-24T16:01:20.221Z,97866.72
2019-03-24T16:06:23.670Z,97860.58
2019-03-24T16:11:26.933Z,97859.16
2019-03-24T16:16:30.299Z,97871.92
2019-03-24T16:21:33.611Z,97887.02
2019-03-24T16:26:36.964Z,97890.26
2019-03-24T16:31:40.399Z,97885.43
2019-03-24T16:36:44.732Z,97890.69
2019-03-24T16:41:48.091Z,97897.61
2019-03-24T16:46:51.449Z,97897.61
2019-03-24T16:51:54.825Z,97898.84
2019-03-24T16:56:58.457Z,97895.95
2019-03-24T17:02:01.818Z,97901.01
2019-03-24T17:07:05.194Z,97899.05
2019-03-24T17:12:09.509Z,97907.28
2019-03-24T17:17:13.864Z,97904.66
2019-03-24T17:22:17.229Z,97913.27
2019-03-24T17:27:21.225Z,97913.20
2019-03-24T17:32:24.594Z,97921.03
2019-03-24T17:37:29.951Z,97917.59
2019-03-24T17:42:33.049Z,97917.41
2019-03-24T17:47:36.418Z,97919.79
2019-03-24T17:52:39.847Z,97931.80
2019-03-24T17:57:43.213Z,97939.98
2019-03-24T18:02:46.648Z,97937.94
2019-03-24T18:07:50.029Z,97940.06
2019-03-24T18:12:53.402Z,97952.11
2019-03-24T18:17:56.769Z,97948.05
2019-03-24T18:23:00.152Z,97940.75
2019-03-24T18:28:03.493Z,97949.88
2019-03-24T18:33:06.860Z,97963.49
2019-03-24T18:38:10.213Z,97969.95
2019-03-24T18:43:13.593Z,97977.19
2019-03-24T18:48:17.003Z,97975.03
2019-03-24T18:53:20.363Z,97972.24
2019-03-24T18:58:23.745Z,97978.27
2019-03-24T19:03:27.111Z,97976.16
2019-03-24T19:08:30.488Z,97964.02
2019-03-24T19:13:33.905Z,97957.73
2019-03-24T19:18:37.376Z,97963.77
2019-03-24T19:23:40.727Z,97963.05
2019-03-24T19:28:44.102Z,97963.05
2019-03-24T19:33:47.595Z,97968.83
2019-03-24T19:38:51.154Z,97974.27
2019-03-24T19:43:54.585Z,97975.70
2019-03-24T19:48:58.902Z,97969.17
2019-03-24T19:54:02.580Z,97974.77
2019-03-24T19:59:05.932Z,97971.16
2019-03-24T20:04:09.293Z,97965.03
2019-03-24T20:09:12.796Z,97963.73
2019-03-24T20:14:16.147Z,97958.56
2019-03-24T20:19:19.583Z,97960.41
2019-03-24T20:24:22.933Z,97962.24
2019-03-24T20:29:26.290Z,97958.77
2019-03-24T20:34:29.664Z,97964.05
2019-03-24T20:39:33.295Z,97958.36
2019-03-24T20:44:36.717Z,97946.11
2019-03-24T20:49:41.063Z,97937.84
2019-03-24T20:54:44.551Z,97938.20
2019-03-24T20:59:48.420Z,97936.94
2019-03-24T21:04:51.837Z,97931.49
2019-03-24T21:09:55.287Z,97925.45
2019-03-24T21:14:58.674Z,97932.55
2019-03-24T21:20:02.085Z,97924.49
2019-03-24T21:25:06.277Z,97922.19
2019-03-24T21:30:11.092Z,97917.23
2019-03-24T21:35:14.535Z,97923.86
2019-03-24T21:40:18.010Z,97917.75
2019-03-24T21:45:21.625Z,97913.73
2019-03-24T21:50:26.106Z,97914.95
2019-03-24T21:55:29.407Z,97920.23
2019-03-24T22:00:36.119Z,97923.47
2019-03-24T22:05:39.537Z,97923.06
2019-03-24T22:10:42.904Z,97928.08
2019-03-24T22:15:46.702Z,97921.66
2019-03-24T22:20:50.042Z,97930.69
2019-03-24T22:25:53.411Z,97921.06
2019-03-24T22:30:56.725Z,97928.11
2019-03-24T22:36:00.054Z,97928.34
2019-03-24T22:41:04.493Z,97920.63
2019-03-24T22:46:07.914Z,97920.34
2019-03-24T22:51:11.301Z,97918.30
2019-03-24T22:56:14.624Z,97912.35
2019-03-24T23:01:18.608Z,97901.30
2019-03-24T23:06:21.921Z,97894.83
2019-03-24T23:11:25.256Z,97892.98
2019-03-24T23:16:28.598Z,97883.95
2019-03-24T23:21:31.940Z,97877.73
2019-03-24T23:26:35.290Z,97882.64
2019-03-24T23:31:38.630Z,97880.36
2019-03-24T23:36:41.961Z,97876.08
2019-03-24T23:41:46.312Z,97877.72
2019-03-24T23:46:49.658Z,97880.71
2019-03-24T23:51:53.025Z,97876.42
2019-03-24T23:56:56.361Z,97867.14
